Time;durP1;ratioP1;P1;durP2;ratioP2;P2;SDS_P1;SDS_P2;PMS_P1;PMS_P2;Temp;Humidity;BMP_temperature;BMP_pressure;BME280_temperature;BME280_humidity;BME280_pressure;Samples;Min_cycle;Max_cycle;Signal;HPM_P1;HPM_P2
2023/08/21 00:01:33;;;;;;;3.03;1.10;;;19.50;99.90;;;;;;5032403;28;20478;-60
2023/08/21 00:03:59;;;;;;;2.40;1.10;;;19.40;99.90;;;;;;5032391;28;20041;-60
2023/08/21 00:06:25;;;;;;;1.70;0.90;;;19.50;99.90;;;;;;5032147;28;20025;-60
2023/08/21 00:08:50;;;;;;;3.25;1.33;;;19.50;99.90;;;;;;5031781;28;20037;-60
2023/08/21 00:11:16;;;;;;;3.35;1.05;;;19.40;99.90;;;;;;5032236;28;20143;-60
2023/08/21 00:13:44;;;;;;;4.35;1.10;;;19.40;99.90;;;;;;5032036;28;20037;-59
2023/08/21 00:16:13;;;;;;;3.30;0.95;;;19.40;99.90;;;;;;5032307;28;20078;-59
2023/08/21 00:18:38;;;;;;;;;;;19.40;99.90;;;;;;5032688;28;20021;-59
2023/08/21 00:21:04;;;;;;;4.57;1.38;;;19.40;99.90;;;;;;5031977;28;19909;-59
2023/08/21 00:23:31;;;;;;;2.55;1.20;;;19.30;99.90;;;;;;5031636;28;20525;-58
2023/08/21 00:25:57;;;;;;;3.45;1.25;;;19.30;99.90;;;;;;5031915;28;20160;-60
2023/08/21 00:28:22;;;;;;;8.40;1.42;;;19.30;99.90;;;;;;5031697;28;20057;-60
2023/08/21 00:30:49;;;;;;;3.97;1.90;;;19.30;99.90;;;;;;5014185;28;20091;-60
2023/08/21 00:33:14;;;;;;;4.53;1.20;;;19.30;99.90;;;;;;5013709;28;20026;-59
2023/08/21 00:35:41;;;;;;;3.95;1.02;;;19.20;99.90;;;;;;5013945;28;20564;-59
2023/08/21 00:38:07;;;;;;;3.13;1.13;;;19.20;99.90;;;;;;5031299;28;20033;-59
2023/08/21 00:40:33;;;;;;;3.92;1.15;;;19.20;99.90;;;;;;5013055;28;20036;-59
2023/08/21 00:42:59;;;;;;;1.73;1.00;;;19.20;99.90;;;;;;5013606;28;20116;-60
2023/08/21 00:45:26;;;;;;;3.70;1.00;;;19.10;99.90;;;;;;5031570;28;20029;-58
2023/08/21 00:47:52;;;;;;;4.20;1.17;;;19.10;99.90;;;;;;5013570;28;20036;-59
2023/08/21 00:50:17;;;;;;;3.47;1.00;;;19.00;99.90;;;;;;5013659;28;20030;-59
2023/08/21 00:52:45;;;;;;;2.17;1.30;;;19.00;99.90;;;;;;5013277;28;20037;-58
2023/08/21 00:55:12;;;;;;;4.13;1.40;;;19.00;99.90;;;;;;5013671;28;20099;-58
2023/08/21 00:57:39;;;;;;;2.28;1.00;;;19.00;99.90;;;;;;5031213;28;20418;-60
2023/08/21 01:00:10;;;;;;;2.17;1.02;;;19.00;99.90;;;;;;5013503;28;20068;-60
2023/08/21 01:02:35;;;;;;;4.35;1.27;;;19.00;99.90;;;;;;5031112;28;20426;-58
2023/08/21 01:05:01;;;;;;;2.92;1.05;;;18.90;99.90;;;;;;5031122;28;20240;-59
2023/08/21 01:07:27;;;;;;;3.55;0.98;;;18.90;99.90;;;;;;5030947;28;20401;-60
2023/08/21 01:10:07;;;;;;;3.22;1.00;;;18.90;99.90;;;;;;5031349;28;20021;-59
2023/08/21 01:12:56;;;;;;;2.13;0.70;;;18.90;99.90;;;;;;5013138;28;20490;-58
2023/08/21 01:15:23;;;;;;;5.50;1.10;;;18.90;99.90;;;;;;5013174;28;20044;-56
2023/08/21 01:17:49;;;;;;;3.15;0.95;;;18.90;99.90;;;;;;5012921;28;20187;-59
2023/08/21 01:20:16;;;;;;;1.88;1.00;;;18.90;99.90;;;;;;5013119;28;20036;-60
2023/08/21 01:22:50;;;;;;;2.22;0.90;;;18.90;99.90;;;;;;5012911;28;20041;-59
2023/08/21 01:25:16;;;;;;;3.33;0.88;;;18.90;99.90;;;;;;5013189;28;20044;-59
2023/08/21 01:27:47;;;;;;;3.17;1.02;;;18.90;99.90;;;;;;5030624;28;20040;-58
2023/08/21 01:30:14;;;;;;;2.42;1.00;;;18.90;99.90;;;;;;5013344;28;20507;-58
2023/08/21 01:33:05;;;;;;;3.88;1.15;;;18.90;99.90;;;;;;5012850;28;20044;-59
2023/08/21 01:35:33;;;;;;;3.08;1.17;;;18.80;99.90;;;;;;5030817;28;20061;-59
2023/08/21 01:37:59;;;;;;;6.43;1.13;;;18.90;99.90;;;;;;5012818;28;20040;-60
2023/08/21 01:40:26;;;;;;;2.45;0.77;;;18.80;99.90;;;;;;5012849;28;20088;-59
2023/08/21 01:42:55;;;;;;;1.77;0.88;;;18.90;99.90;;;;;;5012641;28;20114;-57
2023/08/21 01:45:21;;;;;;;3.15;1.00;;;18.90;99.90;;;;;;5013053;28;20461;-59
2023/08/21 01:47:50;;;;;;;3.47;1.02;;;18.80;99.90;;;;;;5013066;28;20075;-60
2023/08/21 01:50:16;;;;;;;3.38;1.10;;;18.80;99.90;;;;;;5013310;28;20115;-59
2023/08/21 01:52:42;;;;;;;1.90;0.80;;;18.80;99.90;;;;;;5034298;28;20033;-58
2023/08/21 01:55:10;;;;;;;3.20;1.15;;;18.80;99.90;;;;;;5034527;28;20026;-60
2023/08/21 01:57:35;;;;;;;5.50;1.17;;;18.80;99.90;;;;;;5016381;28;20040;-60
2023/08/21 02:00:04;;;;;;;3.65;1.00;;;18.80;99.90;;;;;;5016568;28;20037;-60
2023/08/21 02:02:39;;;;;;;2.67;0.90;;;18.80;99.90;;;;;;5034168;28;20041;-60
2023/08/21 02:05:06;;;;;;;2.92;1.10;;;18.80;99.90;;;;;;5034227;28;20112;-60
2023/08/21 02:07:31;;;;;;;1.90;1.00;;;18.80;99.90;;;;;;5015726;28;20041;-59
2023/08/21 02:09:57;;;;;;;3.80;1.00;;;18.70;99.90;;;;;;5016401;28;20044;-59
2023/08/21 02:12:23;;;;;;;2.60;1.10;;;18.70;99.90;;;;;;5015994;28;20036;-60
2023/08/21 02:14:49;;;;;;;2.53;1.00;;;18.70;99.90;;;;;;5016256;28;20067;-60
2023/08/21 02:17:14;;;;;;;1.45;0.82;;;18.70;99.90;;;;;;5033795;28;20025;-60
2023/08/21 02:19:40;;;;;;;2.47;1.00;;;18.70;99.90;;;;;;5016190;28;20557;-60
2023/08/21 02:22:05;;;;;;;3.17;1.30;;;18.60;99.90;;;;;;5033787;28;20037;-59
2023/08/21 02:24:31;;;;;;;3.63;1.00;;;18.60;99.90;;;;;;5015921;28;20474;-60
2023/08/21 02:26:57;;;;;;;2.00;0.82;;;18.60;99.90;;;;;;5033649;28;20029;-60
2023/08/21 02:29:22;;;;;;;2.67;1.10;;;18.60;99.90;;;;;;5015901;28;20260;-60
2023/08/21 02:31:48;;;;;;;2.45;0.93;;;18.60;99.90;;;;;;5015829;28;20025;-60
2023/08/21 02:34:14;;;;;;;3.10;0.82;;;18.50;99.90;;;;;;5033731;28;20496;-59
2023/08/21 02:36:39;;;;;;;3.72;1.00;;;18.50;99.90;;;;;;5015792;28;20030;-60
2023/08/21 02:39:05;;;;;;;3.83;1.02;;;18.50;99.90;;;;;;5033631;28;20550;-59
2023/08/21 02:41:31;;;;;;;4.57;1.65;;;18.50;99.90;;;;;;5033574;28;20029;-60
2023/08/21 02:43:56;;;;;;;2.90;1.13;;;18.50;99.90;;;;;;5015500;28;20029;-59
2023/08/21 02:46:22;;;;;;;3.30;1.05;;;18.50;99.90;;;;;;5015541;28;20417;-60
2023/08/21 02:48:47;;;;;;;3.20;1.05;;;18.40;99.90;;;;;;5015496;28;20029;-60
2023/08/21 02:51:13;;;;;;;2.08;1.20;;;18.40;99.90;;;;;;5015477;28;20044;-60
2023/08/21 02:53:39;;;;;;;2.70;0.90;;;18.40;99.90;;;;;;5033218;28;20036;-59
2023/08/21 02:56:04;;;;;;;3.88;1.30;;;18.30;99.90;;;;;;5015547;28;20033;-60
2023/08/21 02:58:31;;;;;;;2.88;1.10;;;18.30;99.90;;;;;;5015159;28;20097;-60
2023/08/21 03:00:57;;;;;;;3.63;1.10;;;18.30;99.90;;;;;;5015458;28;20030;-59
2023/08/21 03:03:23;;;;;;;3.22;1.20;;;18.30;99.90;;;;;;5031856;28;20047;-60
2023/08/21 03:05:49;;;;;;;3.28;1.10;;;18.30;99.90;;;;;;5015182;28;20045;-59
2023/08/21 03:08:14;;;;;;;6.68;1.40;;;18.30;99.90;;;;;;5032812;28;20083;-59
2023/08/21 03:10:40;;;;;;;4.72;1.35;;;18.20;99.90;;;;;;5033104;28;20032;-60
2023/08/21 03:13:06;;;;;;;3.00;1.05;;;18.20;99.90;;;;;;5032853;28;20138;-60
2023/08/21 03:15:32;;;;;;;3.20;1.27;;;18.20;99.90;;;;;;5033006;28;20101;-60
2023/08/21 03:17:57;;;;;;;2.88;1.15;;;18.20;99.90;;;;;;5014562;28;20060;-60
2023/08/21 03:20:23;;;;;;;2.50;1.08;;;18.20;99.90;;;;;;5015045;28;20067;-60
2023/08/21 03:22:50;;;;;;;3.63;1.13;;;18.20;99.90;;;;;;5014588;28;20033;-60
2023/08/21 03:25:17;;;;;;;3.20;0.90;;;18.20;99.90;;;;;;5014891;28;20029;-59
2023/08/21 03:27:44;;;;;;;4.32;1.33;;;18.20;99.90;;;;;;5014627;28;20044;-60
2023/08/21 03:30:10;;;;;;;3.58;1.00;;;18.20;99.90;;;;;;5014716;28;20030;-59
2023/08/21 03:32:35;;;;;;;3.58;1.15;;;18.20;99.90;;;;;;5014483;28;20030;-60
2023/08/21 03:35:01;;;;;;;2.75;1.10;;;18.20;99.90;;;;;;5014550;28;20026;-59
2023/08/21 03:37:27;;;;;;;2.95;1.50;;;18.20;99.90;;;;;;5014429;28;20164;-60
2023/08/21 03:39:53;;;;;;;3.20;1.10;;;18.20;99.90;;;;;;5014551;28;20405;-59
2023/08/21 03:42:19;;;;;;;3.45;0.90;;;18.20;99.90;;;;;;5014498;28;20033;-60
2023/08/21 03:44:45;;;;;;;3.70;1.05;;;18.20;99.90;;;;;;5014399;28;20183;-60
2023/08/21 03:47:13;;;;;;;2.80;1.15;;;18.10;99.90;;;;;;5032178;28;20109;-60
2023/08/21 03:49:48;;;;;;;4.32;0.95;;;18.20;99.90;;;;;;5014190;28;20029;-60
2023/08/21 03:52:14;;;;;;;2.40;1.08;;;18.20;99.90;;;;;;5014454;28;20382;-58
2023/08/21 03:54:41;;;;;;;3.53;1.30;;;18.20;99.90;;;;;;5014347;28;20025;-59
2023/08/21 03:57:08;;;;;;;4.43;1.20;;;18.10;99.90;;;;;;5032167;28;20036;-59
2023/08/21 03:59:33;;;;;;;6.13;1.17;;;18.10;99.90;;;;;;5014244;28;20390;-59
2023/08/21 04:02:00;;;;;;;3.42;1.20;;;18.10;99.90;;;;;;5014074;28;20087;-60
2023/08/21 04:04:26;;;;;;;2.55;1.13;;;18.10;99.90;;;;;;5031898;28;20030;-59
2023/08/21 04:06:52;;;;;;;3.83;1.05;;;18.10;99.90;;;;;;5032034;28;20041;-60
2023/08/21 04:09:17;;;;;;;4.00;1.10;;;18.10;99.90;;;;;;5013898;28;20026;-60
2023/08/21 04:11:43;;;;;;;6.28;1.45;;;18.10;99.90;;;;;;5026831;28;20027;-59
2023/08/21 04:14:08;;;;;;;4.18;1.00;;;18.10;99.90;;;;;;5039364;28;20112;-60
2023/08/21 04:16:34;;;;;;;2.60;1.15;;;18.00;99.90;;;;;;5016777;28;20121;-60
2023/08/21 04:19:00;;;;;;;3.03;1.08;;;18.00;99.90;;;;;;5012038;28;20029;-60
2023/08/21 04:21:25;;;;;;;4.90;2.22;;;18.00;99.90;;;;;;5024381;28;20120;-60
2023/08/21 04:23:51;;;;;;;3.97;1.13;;;18.00;99.90;;;;;;5030229;28;20032;-60
2023/08/21 04:26:17;;;;;;;2.00;1.08;;;18.00;99.90;;;;;;5041234;28;20335;-59
2023/08/21 04:28:42;;;;;;;4.53;1.80;;;18.00;99.90;;;;;;5041599;28;20229;-61
2023/08/21 04:31:08;;;;;;;1.83;1.00;;;18.00;99.90;;;;;;5038501;28;20021;-60
2023/08/21 04:33:34;;;;;;;2.78;1.20;;;18.00;99.90;;;;;;5037588;28;20746;-61
2023/08/21 04:36:00;;;;;;;2.58;1.27;;;18.00;99.90;;;;;;5021527;28;20061;-59
2023/08/21 04:38:27;;;;;;;5.55;1.45;;;18.10;99.90;;;;;;5017720;28;20038;-60
2023/08/21 04:40:54;;;;;;;2.38;1.30;;;18.10;99.90;;;;;;5020443;28;20556;-60
2023/08/21 04:43:19;;;;;;;2.78;1.33;;;18.10;99.90;;;;;;5023067;28;20059;-60
2023/08/21 04:45:52;;;;;;;2.22;1.20;;;18.10;99.90;;;;;;5031504;28;20033;-56
2023/08/21 04:48:19;;;;;;;2.25;1.08;;;18.10;99.90;;;;;;5027082;28;20033;-59
2023/08/21 04:50:47;;;;;;;4.88;1.80;;;18.10;99.90;;;;;;5020360;28;20059;-59
2023/08/21 04:53:13;;;;;;;3.00;1.27;;;18.10;99.90;;;;;;5030746;28;20036;-59
2023/08/21 04:55:40;;;;;;;3.67;1.50;;;18.20;99.90;;;;;;5023903;28;20040;-60
2023/08/21 04:58:07;;;;;;;5.85;1.60;;;18.20;99.90;;;;;;5021392;28;20108;-59
2023/08/21 05:00:33;;;;;;;4.22;1.10;;;18.20;99.90;;;;;;5017180;28;20104;-59
2023/08/21 05:02:59;;;;;;;5.05;1.65;;;18.20;99.90;;;;;;5019012;28;20041;-61
2023/08/21 05:05:25;;;;;;;8.38;2.58;;;18.20;99.90;;;;;;5011823;28;20471;-60
2023/08/21 05:07:53;;;;;;;5.20;1.50;;;18.20;99.90;;;;;;5010963;28;20029;-60
2023/08/21 05:10:19;;;;;;;4.85;1.40;;;18.20;99.90;;;;;;5014923;28;20028;-59
2023/08/21 05:12:45;;;;;;;5.70;1.65;;;18.20;99.90;;;;;;5014830;28;20030;-60
2023/08/21 05:15:11;;;;;;;3.60;1.33;;;18.20;99.90;;;;;;5022168;28;20028;-58
2023/08/21 05:17:36;;;;;;;3.10;1.38;;;18.30;99.90;;;;;;5016151;28;20533;-60
2023/08/21 05:20:03;;;;;;;4.18;1.70;;;18.30;99.90;;;;;;5037405;28;20040;-58
2023/08/21 05:22:29;;;;;;;6.65;2.60;;;18.30;99.90;;;;;;5015818;28;20037;-59
2023/08/21 05:24:54;;;;;;;4.38;1.50;;;18.30;99.90;;;;;;5030445;28;20032;-60
2023/08/21 05:27:21;;;;;;;4.18;1.20;;;18.40;99.90;;;;;;5003546;28;20037;-60
2023/08/21 05:29:49;;;;;;;6.25;2.15;;;18.40;99.90;;;;;;5044810;28;20036;-60
2023/08/21 05:32:14;;;;;;;3.20;1.48;;;18.40;99.90;;;;;;5015119;28;20045;-60
2023/08/21 05:34:41;;;;;;;3.25;1.50;;;18.50;99.90;;;;;;5015650;28;20047;-61
2023/08/21 05:37:06;;;;;;;4.32;1.63;;;18.50;99.90;;;;;;5006448;28;20030;-61
2023/08/21 05:39:33;;;;;;;4.13;1.50;;;18.60;99.90;;;;;;5033549;28;20532;-60
2023/08/21 05:41:59;;;;;;;4.43;1.33;;;18.60;99.90;;;;;;5042639;28;20461;-60
2023/08/21 05:44:25;;;;;;;6.13;1.67;;;18.70;99.90;;;;;;5030413;28;20068;-60
2023/08/21 05:46:51;;;;;;;3.70;1.23;;;18.80;99.90;;;;;;5023596;28;20129;-60
2023/08/21 05:49:17;;;;;;;3.53;1.35;;;18.90;99.90;;;;;;5026986;28;20107;-60
2023/08/21 05:51:42;;;;;;;3.20;1.13;;;19.00;99.90;;;;;;5027660;28;20029;-58
2023/08/21 05:54:08;;;;;;;4.47;1.25;;;19.00;99.90;;;;;;5034013;28;20041;-59
2023/08/21 05:56:35;;;;;;;3.20;1.30;;;19.10;99.90;;;;;;5015324;28;20033;-59
2023/08/21 05:59:01;;;;;;;3.70;1.15;;;19.10;99.90;;;;;;5033672;28;20426;-60
2023/08/21 06:01:26;;;;;;;3.45;1.40;;;19.20;99.90;;;;;;5019591;28;20029;-56
2023/08/21 06:03:53;;;;;;;3.38;1.15;;;19.30;99.90;;;;;;5036425;28;20091;-57
2023/08/21 06:06:37;;;;;;;3.97;1.38;;;19.40;99.90;;;;;;5020268;28;20567;-58
2023/08/21 06:09:03;;;;;;;4.15;1.48;;;19.50;99.90;;;;;;5017557;28;20093;-55
2023/08/21 06:11:29;;;;;;;4.30;1.48;;;19.60;99.90;;;;;;5028563;28;20053;-57
2023/08/21 06:13:54;;;;;;;4.68;1.55;;;19.70;99.90;;;;;;5023345;28;20108;-57
2023/08/21 06:16:20;;;;;;;6.18;1.70;;;19.80;99.90;;;;;;5010559;28;20025;-57
2023/08/21 06:18:47;;;;;;;5.82;1.73;;;19.90;99.90;;;;;;5025264;28;20044;-56
2023/08/21 06:21:13;;;;;;;4.95;1.60;;;20.00;99.90;;;;;;5015596;28;20024;-57
2023/08/21 06:23:39;;;;;;;5.38;1.63;;;20.10;99.90;;;;;;5014831;28;20133;-58
2023/08/21 06:26:04;;;;;;;3.58;1.42;;;20.20;99.90;;;;;;5006513;28;20036;-57
2023/08/21 06:28:30;;;;;;;2.80;1.13;;;20.30;99.90;;;;;;5014253;28;20267;-58
2023/08/21 06:30:57;;;;;;;5.50;1.50;;;20.40;99.90;;;;;;5016057;28;20124;-57
2023/08/21 06:33:24;;;;;;;6.38;1.90;;;20.50;99.90;;;;;;5026455;28;20025;-58
2023/08/21 06:35:49;;;;;;;6.90;2.50;;;20.60;99.90;;;;;;5033286;28;20669;-55
2023/08/21 06:38:15;;;;;;;3.17;1.38;;;20.80;99.90;;;;;;5016079;28;20254;-59
2023/08/21 06:40:41;;;;;;;9.55;1.90;;;20.90;99.90;;;;;;5040953;28;20086;-60
2023/08/21 06:43:07;;;;;;;5.95;1.88;;;21.00;99.90;;;;;;5022702;28;20036;-60
2023/08/21 06:45:34;;;;;;;5.00;1.38;;;21.10;99.90;;;;;;5040874;28;20083;-59
2023/08/21 06:48:02;;;;;;;4.63;1.58;;;21.10;99.90;;;;;;5015754;28;20158;-59
2023/08/21 06:50:28;;;;;;;4.05;1.60;;;21.10;99.90;;;;;;5039426;28;20036;-59
2023/08/21 06:52:53;;;;;;;4.40;1.30;;;21.10;99.90;;;;;;5048409;28;20525;-59
2023/08/21 06:55:19;;;;;;;4.53;1.50;;;21.00;99.90;;;;;;5044709;28;20033;-60
2023/08/21 06:57:44;;;;;;;5.82;1.60;;;21.00;99.90;;;;;;5038123;28;20030;-60
2023/08/21 07:00:10;;;;;;;5.03;1.35;;;21.10;99.90;;;;;;5049211;28;20040;-60
2023/08/21 07:02:36;;;;;;;3.78;1.55;;;21.20;99.90;;;;;;5040802;28;20033;-60
2023/08/21 07:05:02;;;;;;;4.47;1.40;;;21.30;99.90;;;;;;5049783;28;20033;-60
2023/08/21 07:07:28;;;;;;;3.50;1.30;;;21.30;99.90;;;;;;5039933;28;20038;-59
2023/08/21 07:09:54;;;;;;;3.33;1.25;;;21.40;99.90;;;;;;5041594;28;20471;-57
2023/08/21 07:12:19;;;;;;;4.72;1.83;;;21.50;99.90;;;;;;5032488;28;20041;-56
2023/08/21 07:14:45;;;;;;;2.70;1.20;;;21.70;99.90;;;;;;5033950;28;20030;-58
2023/08/21 07:17:10;;;;;;;4.20;1.45;;;21.80;99.90;;;;;;5035179;28;20020;-60
2023/08/21 07:19:36;;;;;;;4.70;1.60;;;21.90;99.90;;;;;;5039177;28;20025;-59
2023/08/21 07:22:02;;;;;;;2.83;1.30;;;22.10;99.90;;;;;;5036654;28;20056;-60
2023/08/21 07:24:27;;;;;;;4.82;1.70;;;22.20;99.90;;;;;;5037373;28;20429;-59
2023/08/21 07:26:53;;;;;;;2.75;1.00;;;22.20;99.90;;;;;;5036811;28;20029;-59
2023/08/21 07:29:18;;;;;;;2.13;1.10;;;22.30;99.90;;;;;;5037086;28;20028;-59
2023/08/21 07:31:44;;;;;;;3.70;1.20;;;22.40;99.90;;;;;;5037519;28;20033;-60
2023/08/21 07:34:09;;;;;;;4.50;1.40;;;22.40;99.90;;;;;;5041798;28;20017;-60
2023/08/21 07:36:35;;;;;;;4.70;1.40;;;22.50;99.90;;;;;;5022385;28;20116;-60
2023/08/21 07:39:01;;;;;;;2.20;0.90;;;22.60;99.90;;;;;;5035205;28;20052;-60
2023/08/21 07:41:26;;;;;;;3.65;1.42;;;22.60;99.90;;;;;;5039935;28;20083;-58
2023/08/21 07:43:52;;;;;;;4.20;1.40;;;22.70;99.90;;;;;;5034232;28;20032;-61
2023/08/21 07:46:18;;;;;;;4.45;1.40;;;22.80;99.90;;;;;;5040890;28;20443;-60
2023/08/21 07:48:45;;;;;;;3.22;1.25;;;22.90;99.90;;;;;;5039653;28;20104;-60
2023/08/21 07:51:11;;;;;;;4.85;1.60;;;22.90;99.90;;;;;;5042013;28;20128;-60
2023/08/21 07:53:36;;;;;;;4.15;1.40;;;23.10;99.90;;;;;;5040330;28;20049;-60
2023/08/21 07:56:06;;;;;;;3.75;1.92;;;23.20;99.90;;;;;;5036082;28;20036;-60
2023/08/21 07:58:32;;;;;;;4.15;1.77;;;23.20;99.90;;;;;;5026086;28;20033;-60
2023/08/21 08:00:58;;;;;;;4.70;1.73;;;23.30;99.90;;;;;;5039444;28;20025;-60
2023/08/21 08:03:25;;;;;;;4.03;1.60;;;23.40;99.90;;;;;;5037002;28;20052;-60
2023/08/21 08:05:50;;;;;;;4.25;1.73;;;23.40;99.90;;;;;;5037086;28;20025;-60
2023/08/21 08:08:17;;;;;;;3.60;1.35;;;23.40;99.90;;;;;;5035065;28;20032;-60
2023/08/21 08:10:43;;;;;;;4.32;1.65;;;23.40;99.90;;;;;;5034181;28;20098;-60
2023/08/21 08:13:08;;;;;;;4.10;1.40;;;23.40;99.90;;;;;;5042175;28;20037;-61
2023/08/21 08:15:35;;;;;;;5.88;1.52;;;23.40;99.90;;;;;;5050246;28;20029;-60
2023/08/21 08:18:02;;;;;;;3.58;1.60;;;23.50;99.90;;;;;;5043322;28;20389;-60
2023/08/21 08:20:28;;;;;;;5.20;1.23;;;23.60;99.90;;;;;;5034348;28;20040;-60
2023/08/21 08:22:53;;;;;;;3.53;1.40;;;23.50;99.90;;;;;;5040281;28;20025;-60
2023/08/21 08:25:19;;;;;;;2.83;1.52;;;23.60;99.90;;;;;;5047727;28;20039;-60
2023/08/21 08:27:48;;;;;;;3.65;1.80;;;23.60;99.90;;;;;;5033374;28;20032;-60
2023/08/21 08:30:14;;;;;;;7.38;1.85;;;23.60;99.90;;;;;;5014307;28;20288;-60
2023/08/21 08:32:44;;;;;;;5.53;1.75;;;23.70;99.90;;;;;;5034091;28;20037;-59
2023/08/21 08:35:12;;;;;;;6.35;1.55;;;23.70;99.90;;;;;;5030236;28;20044;-60
2023/08/21 08:37:37;;;;;;;4.05;1.23;;;23.80;99.90;;;;;;5030574;28;20406;-59
2023/08/21 08:40:04;;;;;;;4.68;1.42;;;23.80;99.90;;;;;;5030816;28;20029;-57
2023/08/21 08:42:30;;;;;;;4.18;1.83;;;23.80;99.90;;;;;;5030553;28;20041;-60
2023/08/21 08:45:00;;;;;;;3.67;1.52;;;23.80;99.90;;;;;;5030815;28;20055;-59
2023/08/21 08:47:28;;;;;;;3.92;1.40;;;23.90;99.90;;;;;;5030540;28;20512;-60
2023/08/21 08:49:55;;;;;;;5.15;1.38;;;24.00;99.90;;;;;;5013091;28;20081;-60
2023/08/21 08:52:21;;;;;;;2.47;1.23;;;24.00;99.90;;;;;;5030562;28;20068;-60
2023/08/21 08:54:47;;;;;;;3.25;1.23;;;24.10;99.90;;;;;;5031057;28;20107;-59
2023/08/21 08:57:13;;;;;;;3.45;1.60;;;24.10;99.90;;;;;;5030732;28;20649;-60
2023/08/21 08:59:38;;;;;;;3.00;1.17;;;24.10;99.90;;;;;;5030175;28;20038;-60
2023/08/21 09:02:04;;;;;;;4.80;1.25;;;24.10;99.90;;;;;;5030119;28;20025;-60
2023/08/21 09:04:30;;;;;;;5.70;1.52;;;24.10;99.90;;;;;;5030640;28;20038;-60
2023/08/21 09:07:11;;;;;;;5.63;2.33;;;24.20;99.90;;;;;;5030739;28;20026;-59
2023/08/21 09:09:49;;;;;;;56.47;28.80;;;24.30;99.90;;;;;;5030627;28;20072;-60
2023/08/21 09:12:15;;;;;;;5.95;2.45;;;24.30;99.90;;;;;;5030407;28;20032;-60
2023/08/21 09:14:42;;;;;;;2.55;1.23;;;24.40;99.90;;;;;;5030524;28;20440;-60
2023/08/21 09:17:08;;;;;;;2.92;0.90;;;24.40;99.90;;;;;;5030388;28;20036;-60
2023/08/21 09:19:34;;;;;;;2.00;0.93;;;24.50;99.90;;;;;;5030453;28;20022;-58
2023/08/21 09:22:09;;;;;;;4.60;1.05;;;24.50;99.90;;;;;;5030178;28;20438;-60
2023/08/21 09:24:35;;;;;;;3.17;1.00;;;24.70;99.90;;;;;;5030496;28;20086;-59
2023/08/21 09:27:01;;;;;;;3.45;1.42;;;24.80;99.90;;;;;;5030108;28;20037;-59
2023/08/21 09:29:37;;;;;;;2.47;1.15;;;24.80;99.90;;;;;;5030436;28;20056;-60
2023/08/21 09:32:03;;;;;;;1.73;0.90;;;25.00;99.90;;;;;;5030596;28;20025;-60
2023/08/21 09:34:34;;;;;;;2.92;1.13;;;25.00;99.90;;;;;;5030615;28;20485;-60
2023/08/21 09:37:00;;;;;;;1.55;0.88;;;25.00;99.90;;;;;;5030229;28;20453;-60
2023/08/21 09:39:33;;;;;;;5.95;1.10;;;25.00;99.90;;;;;;5030371;28;20087;-60
2023/08/21 09:41:59;;;;;;;4.15;1.00;;;24.90;99.90;;;;;;5030064;28;20068;-60
2023/08/21 09:44:25;;;;;;;3.97;1.20;;;24.90;99.90;;;;;;5030189;28;20025;-60
2023/08/21 09:46:50;;;;;;;2.83;1.20;;;24.80;99.90;;;;;;5030210;28;20116;-60
2023/08/21 09:49:18;;;;;;;4.43;1.23;;;24.80;99.90;;;;;;5030120;28;20021;-60
2023/08/21 09:51:44;;;;;;;3.17;1.10;;;24.60;99.90;;;;;;5030215;28;20030;-60
2023/08/21 09:54:11;;;;;;;2.28;1.02;;;24.50;99.90;;;;;;5029948;28;20025;-60
2023/08/21 09:56:37;;;;;;;5.38;1.55;;;24.50;99.90;;;;;;5030107;28;20029;-60
2023/08/21 09:59:04;;;;;;;2.85;1.10;;;24.50;99.90;;;;;;5030055;28;20470;-60
2023/08/21 10:01:33;;;;;;;1.98;1.08;;;24.60;99.90;;;;;;5030026;28;20061;-60
2023/08/21 10:04:02;;;;;;;6.60;1.65;;;24.70;99.90;;;;;;5030003;28;20064;-59
2023/08/21 10:06:29;;;;;;;1.92;0.93;;;24.90;99.90;;;;;;5030096;28;20390;-60
2023/08/21 10:08:56;;;;;;;4.80;1.75;;;25.00;99.90;;;;;;5029935;28;20040;-59
2023/08/21 10:11:22;;;;;;;4.88;0.98;;;25.20;99.90;;;;;;5030574;28;20040;-59
2023/08/21 10:13:51;;;;;;;3.75;1.00;;;25.30;99.90;;;;;;5033660;28;20026;-59
2023/08/21 10:16:17;;;;;;;5.80;1.20;;;25.50;99.90;;;;;;5033692;28;20130;-60
2023/08/21 10:18:46;;;;;;;6.28;1.52;;;25.60;99.90;;;;;;5033401;28;20486;-59
2023/08/21 10:21:25;;;;;;;4.85;1.20;;;25.70;99.90;;;;;;5033437;28;20034;-59
2023/08/21 10:23:54;;;;;;;4.70;1.13;;;25.80;99.90;;;;;;5033350;28;20045;-60
2023/08/21 10:26:22;;;;;;;4.22;1.65;;;25.80;99.90;;;;;;5033452;28;20030;-60
2023/08/21 10:28:47;;;;;;;3.25;1.13;;;25.90;99.90;;;;;;5033214;28;20053;-60
2023/08/21 10:31:40;;;;;;;3.03;1.20;;;25.80;99.90;;;;;;5033448;28;20482;-59
2023/08/21 10:34:12;;;;;;;3.95;1.10;;;26.00;99.90;;;;;;5030839;28;20120;-60
2023/08/21 10:37:06;;;;;;;2.70;1.30;;;26.20;99.90;;;;;;5033297;28;20029;-60
2023/08/21 10:39:33;;;;;;;3.85;1.15;;;26.30;99.90;;;;;;5026039;28;20044;-60
2023/08/21 10:42:14;;;;;;;3.10;1.20;;;26.30;99.90;;;;;;5033029;28;20159;-60
2023/08/21 10:44:42;;;;;;;4.70;1.35;;;26.20;99.90;;;;;;5033090;28;20053;-59
2023/08/21 10:47:34;;;;;;;2.90;1.25;;;26.30;99.90;;;;;;5032863;28;20112;-60
2023/08/21 10:50:05;;;;;;;3.75;1.25;;;26.30;99.90;;;;;;5033055;28;20071;-58
2023/08/21 10:52:35;;;;;;;5.90;1.20;;;26.30;99.90;;;;;;5032714;28;20386;-59
2023/08/21 10:55:05;;;;;;;3.97;1.20;;;26.30;99.90;;;;;;5033233;28;20445;-60
2023/08/21 10:57:32;;;;;;;2.80;1.02;;;26.40;99.90;;;;;;5032901;28;20033;-60
2023/08/21 11:00:11;;;;;;;3.33;1.17;;;26.50;99.90;;;;;;5032965;28;20034;-60
2023/08/21 11:02:39;;;;;;;3.95;1.63;;;26.50;99.90;;;;;;5032827;28;20115;-60
2023/08/21 11:05:05;;;;;;;4.35;1.00;;;26.50;99.90;;;;;;5032865;28;20422;-59
2023/08/21 11:07:46;;;;;;;5.25;1.10;;;26.60;99.90;;;;;;5032646;28;20076;-60
2023/08/21 11:10:17;;;;;;;5.70;3.25;;;26.70;99.90;;;;;;5033096;28;20087;-60
2023/08/21 11:12:57;;;;;;;4.95;1.27;;;26.80;99.50;;;;;;5033108;28;20108;-58
2023/08/21 11:15:25;;;;;;;3.28;1.23;;;26.60;99.90;;;;;;5032770;28;20453;-60
2023/08/21 11:17:59;;;;;;;3.45;1.15;;;26.70;99.90;;;;;;5032592;28;20030;-59
2023/08/21 11:20:33;;;;;;;4.03;1.35;;;26.70;99.90;;;;;;5032478;28;20083;-60
2023/08/21 11:23:06;;;;;;;1.70;1.10;;;26.70;99.50;;;;;;5030871;28;20033;-59
2023/08/21 11:25:33;;;;;;;4.60;1.55;;;26.60;99.40;;;;;;5031519;28;20112;-58
2023/08/21 11:27:59;;;;;;;3.33;1.38;;;26.60;99.50;;;;;;5031292;28;20047;-60
2023/08/21 11:30:25;;;;;;;7.28;2.05;;;26.70;99.90;;;;;;5031634;28;20466;-60
2023/08/21 11:33:06;;;;;;;3.28;1.05;;;26.80;99.90;;;;;;5031758;28;20026;-60
2023/08/21 11:35:31;;;;;;;6.97;3.53;;;26.90;99.40;;;;;;5032152;28;20072;-60
2023/08/21 11:37:57;;;;;;;3.40;1.30;;;27.20;99.90;;;;;;5031686;28;20061;-60
2023/08/21 11:40:22;;;;;;;5.97;1.27;;;27.20;99.20;;;;;;5032024;28;20029;-58
2023/08/21 11:42:52;;;;;;;2.72;1.17;;;27.20;99.40;;;;;;5032148;28;20032;-60
2023/08/21 11:45:21;;;;;;;3.63;1.20;;;27.20;99.90;;;;;;5032121;28;20033;-59
2023/08/21 11:47:46;;;;;;;2.75;1.23;;;27.20;99.10;;;;;;5031787;28;20486;-61
2023/08/21 11:50:18;;;;;;;3.92;1.50;;;27.20;98.20;;;;;;5031831;28;20037;-58
2023/08/21 11:52:43;;;;;;;5.20;1.40;;;27.00;98.90;;;;;;5031700;28;20034;-61
2023/08/21 11:55:13;;;;;;;4.30;1.45;;;26.90;99.30;;;;;;5031762;28;20032;-60
2023/08/21 11:57:49;;;;;;;3.17;1.20;;;27.00;98.70;;;;;;5031712;28;20427;-60
2023/08/21 12:00:18;;;;;;;2.90;1.40;;;27.10;98.50;;;;;;5031654;28;20048;-60
2023/08/21 12:02:57;;;;;;;1.83;0.90;;;27.10;98.50;;;;;;5031382;28;20025;-59
2023/08/21 12:05:23;;;;;;;5.18;1.15;;;27.10;98.40;;;;;;5031387;28;20034;-60
2023/08/21 12:07:49;;;;;;;4.50;1.20;;;27.20;99.60;;;;;;5031099;28;20056;-60
2023/08/21 12:10:26;;;;;;;3.10;1.17;;;27.10;98.30;;;;;;5031537;28;20159;-58
2023/08/21 12:12:52;;;;;;;5.80;2.53;;;27.10;98.30;;;;;;5031510;28;20393;-60
2023/08/21 12:15:17;;;;;;;5.13;1.73;;;27.20;99.60;;;;;;5031617;28;20030;-59
2023/08/21 12:17:43;;;;;;;3.45;1.15;;;27.20;98.50;;;;;;5031276;28;20487;-60
2023/08/21 12:20:12;;;;;;;1.85;1.20;;;27.20;98.90;;;;;;5031483;28;20456;-60
2023/08/21 12:22:38;;;;;;;;;;;27.10;99.40;;;;;;5031655;28;20108;-60
2023/08/21 12:25:04;;;;;;;3.78;1.27;;;27.10;98.70;;;;;;5031558;28;19909;-59
2023/08/21 12:27:30;;;;;;;4.95;1.83;;;27.10;98.70;;;;;;5030996;28;20044;-59
2023/08/21 12:29:56;;;;;;;1.98;1.40;;;27.10;99.40;;;;;;5031257;28;20459;-59
2023/08/21 12:32:22;;;;;;;3.90;1.48;;;26.90;99.10;;;;;;5030812;28;20043;-59
2023/08/21 12:34:48;;;;;;;1.95;1.48;;;26.80;99.70;;;;;;5030972;28;20029;-59
2023/08/21 12:37:13;;;;;;;2.47;1.13;;;26.70;99.60;;;;;;5030879;28;20071;-59
2023/08/21 12:39:39;;;;;;;3.92;1.45;;;26.70;99.20;;;;;;5031028;28;20034;-59
2023/08/21 12:42:05;;;;;;;3.72;1.60;;;26.70;99.00;;;;;;5030762;28;20072;-59
2023/08/21 12:44:30;;;;;;;3.05;1.10;;;26.60;99.00;;;;;;5030827;28;20119;-58
2023/08/21 12:46:56;;;;;;;3.17;1.15;;;26.70;99.50;;;;;;5029899;28;20044;-60
2023/08/21 12:49:22;;;;;;;3.42;1.33;;;26.70;99.60;;;;;;5031107;28;20032;-60